createdAt,value
2022-12-03T00:00:12.448Z,100.00
2022-12-03T00:03:27.826Z,100.00
2022-12-03T00:06:36.364Z,100.00
2022-12-03T00:09:50.738Z,100.00
2022-12-03T00:12:52.634Z,100.00
2022-12-03T00:16:07.766Z,100.00
2022-12-03T00:19:29.736Z,100.00
2022-12-03T00:22:38.257Z,100.00
2022-12-03T00:25:52.715Z,100.00
2022-12-03T00:28:54.678Z,100.00
2022-12-03T00:32:09.727Z,100.00
2022-12-03T00:35:18.352Z,100.00
2022-12-03T00:38:26.749Z,100.00
2022-12-03T00:41:41.759Z,100.00
2022-12-03T00:44:43.643Z,100.00
2022-12-03T00:47:58.711Z,100.00
2022-12-03T00:51:00.588Z,100.00
2022-12-03T00:54:15.720Z,100.00
2022-12-03T00:57:30.722Z,100.00
2022-12-03T01:00:38.695Z,100.00
2022-12-03T01:03:47.395Z,100.00
2022-12-03T01:06:55.709Z,100.00
2022-12-03T01:10:05.871Z,100.00
2022-12-03T01:13:20.699Z,100.00
2022-12-03T01:16:22.837Z,100.00
2022-12-03T01:19:48.202Z,100.00
2022-12-03T01:22:56.713Z,100.00
2022-12-03T01:26:05.472Z,100.00
2022-12-03T01:29:14.741Z,100.00
2022-12-03T01:32:23.332Z,100.00
2022-12-03T01:35:31.708Z,100.00
2022-12-03T01:38:46.729Z,100.00
2022-12-03T01:42:01.721Z,100.00
2022-12-03T01:45:04.528Z,100.00
2022-12-03T01:48:22.713Z,100.00
2022-12-03T01:51:38.697Z,100.00
2022-12-03T01:55:06.713Z,100.00
2022-12-03T01:58:16.207Z,100.00
2022-12-03T02:01:30.741Z,100.00
2022-12-03T02:04:39.686Z,100.00
2022-12-03T02:07:48.455Z,100.00
2022-12-03T02:10:57.703Z,100.00
2022-12-03T02:14:13.840Z,100.00
2022-12-03T02:17:35.711Z,100.00
2022-12-03T02:20:49.408Z,100.00
2022-12-03T02:24:07.716Z,100.00
2022-12-03T02:27:22.704Z,100.00
2022-12-03T02:30:27.233Z,100.00
2022-12-03T02:33:41.692Z,100.00
2022-12-03T02:36:56.721Z,100.00
2022-12-03T02:40:19.729Z,100.00
2022-12-03T02:43:28.459Z,100.00
2022-12-03T02:46:36.792Z,100.00
2022-12-03T02:49:51.695Z,100.00
2022-12-03T02:53:02.718Z,100.00
2022-12-03T02:56:24.684Z,100.00
2022-12-03T02:59:27.445Z,100.00
2022-12-03T03:02:43.743Z,100.00
2022-12-03T03:05:53.234Z,100.00
2022-12-03T03:09:01.716Z,100.00
2022-12-03T03:12:11.069Z,100.00
2022-12-03T03:15:25.720Z,100.00
2022-12-03T03:18:34.565Z,100.00
2022-12-03T03:21:49.698Z,100.00
2022-12-03T03:24:58.313Z,100.00
2022-12-03T03:28:06.685Z,100.00
2022-12-03T03:31:24.784Z,100.00
2022-12-03T03:34:27.508Z,100.00
2022-12-03T03:37:42.677Z,100.00
2022-12-03T03:40:44.835Z,100.00
2022-12-03T03:44:00.692Z,100.00
2022-12-03T03:47:02.746Z,100.00
2022-12-03T03:50:19.673Z,100.00
2022-12-03T03:53:29.697Z,100.00
2022-12-03T03:56:38.657Z,100.00
2022-12-03T03:59:47.713Z,100.00
2022-12-03T04:02:56.580Z,100.00
2022-12-03T04:06:04.686Z,100.00
2022-12-03T04:09:13.311Z,100.00
2022-12-03T04:12:27.701Z,100.00
2022-12-03T04:15:36.339Z,100.00
2022-12-03T04:18:51.723Z,100.00
2022-12-03T04:22:00.383Z,100.00
2022-12-03T04:25:08.691Z,100.00
2022-12-03T04:28:17.309Z,100.00
2022-12-03T04:31:25.793Z,100.00
2022-12-03T04:34:34.300Z,100.00
2022-12-03T04:37:42.722Z,100.00
2022-12-03T04:40:54.447Z,100.00
2022-12-03T04:44:09.690Z,100.00
2022-12-03T04:47:26.714Z,100.00
2022-12-03T04:50:41.704Z,100.00
2022-12-03T04:53:49.687Z,100.00
2022-12-03T04:56:58.268Z,100.00
2022-12-03T05:00:20.708Z,100.00
2022-12-03T05:03:22.884Z,100.00
2022-12-03T05:06:37.711Z,100.00
2022-12-03T05:09:46.674Z,100.00
2022-12-03T05:13:01.687Z,100.00
2022-12-03T05:16:03.607Z,100.00
2022-12-03T05:19:25.717Z,100.00
2022-12-03T05:22:33.687Z,100.00
2022-12-03T05:25:48.692Z,100.00
2022-12-03T05:28:50.648Z,100.00
2022-12-03T05:32:05.672Z,100.00
2022-12-03T05:35:20.671Z,100.00
2022-12-03T05:38:22.600Z,100.00
2022-12-03T05:41:37.682Z,100.00
2022-12-03T05:44:46.233Z,100.00
2022-12-03T05:47:54.699Z,100.00
2022-12-03T05:51:09.681Z,100.00
2022-12-03T05:54:11.605Z,100.00
2022-12-03T05:57:26.700Z,100.00
2022-12-03T06:00:43.689Z,100.00
2022-12-03T06:03:52.415Z,100.00
2022-12-03T06:07:00.665Z,100.00
2022-12-03T06:10:11.877Z,100.00
2022-12-03T06:13:20.650Z,100.00
2022-12-03T06:16:42.714Z,100.00
2022-12-03T06:19:57.661Z,100.00
2022-12-03T06:23:06.309Z,100.00
2022-12-03T06:26:21.664Z,100.00
2022-12-03T06:29:23.764Z,100.00
2022-12-03T06:32:38.676Z,100.00
2022-12-03T06:35:40.578Z,100.00
2022-12-03T06:38:55.713Z,100.00
2022-12-03T06:42:04.508Z,100.00
2022-12-03T06:45:13.651Z,100.00
2022-12-03T06:48:28.678Z,100.00
2022-12-03T06:51:37.657Z,100.00
2022-12-03T06:54:52.875Z,100.00
2022-12-03T06:58:01.306Z,100.00
2022-12-03T07:01:15.744Z,100.00
2022-12-03T07:04:33.660Z,100.00
2022-12-03T07:07:48.743Z,100.00
2022-12-03T07:10:50.744Z,100.00
2022-12-03T07:14:07.691Z,100.00
2022-12-03T07:17:16.647Z,100.00
2022-12-03T07:20:31.668Z,100.00
2022-12-03T07:23:33.529Z,100.00
2022-12-03T07:26:48.665Z,100.00
2022-12-03T07:30:03.652Z,100.00
2022-12-03T07:33:12.365Z,100.00
2022-12-03T07:36:27.695Z,100.00
2022-12-03T07:39:36.363Z,100.00
2022-12-03T07:42:44.667Z,100.00
2022-12-03T07:45:59.664Z,100.00
2022-12-03T07:49:08.675Z,100.00
2022-12-03T07:52:17.257Z,100.00
2022-12-03T07:55:31.671Z,100.00
2022-12-03T07:58:46.645Z,100.00
2022-12-03T08:02:01.727Z,100.00
2022-12-03T08:05:03.998Z,100.00
2022-12-03T08:08:18.713Z,100.00
2022-12-03T08:11:35.634Z,100.00
2022-12-03T08:14:44.701Z,100.00
2022-12-03T08:18:00.586Z,100.00
2022-12-03T08:21:21.656Z,100.00
2022-12-03T08:24:29.697Z,100.00
2022-12-03T08:27:38.204Z,100.00
2022-12-03T08:30:48.725Z,100.00
2022-12-03T08:34:13.862Z,100.00
2022-12-03T08:37:28.636Z,100.00
2022-12-03T08:40:35.789Z,100.00
2022-12-03T08:43:50.664Z,100.00
2022-12-03T08:47:23.610Z,100.00
2022-12-03T08:50:39.653Z,100.00
2022-12-03T08:53:51.934Z,100.00
2022-12-03T08:57:02.661Z,100.00
2022-12-03T09:00:28.653Z,100.00
2022-12-03T09:04:25.712Z,100.00
2022-12-03T09:07:40.730Z,100.00
2022-12-03T09:10:49.328Z,100.00
2022-12-03T09:14:04.666Z,100.00
2022-12-03T09:17:19.895Z,100.00
2022-12-03T09:20:34.650Z,100.00
2022-12-03T09:23:43.265Z,100.00
2022-12-03T09:27:03.720Z,100.00
2022-12-03T09:30:13.626Z,100.00
2022-12-03T09:33:28.681Z,100.00
2022-12-03T09:36:43.634Z,100.00
2022-12-03T09:39:52.276Z,100.00
2022-12-03T09:43:06.612Z,100.00
2022-12-03T09:46:15.742Z,100.00
2022-12-03T09:49:24.289Z,99.92
2022-12-03T09:52:41.660Z,99.88
2022-12-03T09:55:50.579Z,100.00
2022-12-03T09:59:05.667Z,99.07
2022-12-03T10:02:30.642Z,99.37
2022-12-03T10:05:43.791Z,98.27
2022-12-03T10:08:56.587Z,98.22
2022-12-03T10:12:12.645Z,96.86
2022-12-03T10:15:23.619Z,97.19
2022-12-03T10:18:49.655Z,96.59
2022-12-03T10:22:05.656Z,95.26
2022-12-03T10:25:24.660Z,94.47
2022-12-03T10:28:38.855Z,93.57
2022-12-03T10:31:47.720Z,93.91
2022-12-03T10:35:09.986Z,93.60
2022-12-03T10:38:24.666Z,93.71
2022-12-03T10:41:33.237Z,94.20
2022-12-03T10:44:47.638Z,93.66
2022-12-03T10:48:23.636Z,92.65
2022-12-03T10:51:38.643Z,92.24
2022-12-03T10:54:40.543Z,92.39
2022-12-03T10:57:55.682Z,93.20
2022-12-03T11:01:26.769Z,93.37
2022-12-03T11:04:39.624Z,92.57
2022-12-03T11:07:48.593Z,93.88
2022-12-03T11:11:25.629Z,93.94
2022-12-03T11:15:00.666Z,93.39
2022-12-03T11:18:15.635Z,93.48
2022-12-03T11:21:30.958Z,93.56
2022-12-03T11:24:46.631Z,92.62
2022-12-03T11:28:10.522Z,93.54
2022-12-03T11:31:51.643Z,93.25
2022-12-03T11:35:06.747Z,93.53
2022-12-03T11:38:49.156Z,92.93
2022-12-03T11:42:29.658Z,92.98
2022-12-03T11:45:45.644Z,93.01
2022-12-03T11:48:56.633Z,92.84
2022-12-03T11:52:33.009Z,92.76
2022-12-03T11:55:47.771Z,92.62
2022-12-03T11:59:09.656Z,92.50
2022-12-03T12:02:21.162Z,92.55
2022-12-03T12:05:38.606Z,92.40
2022-12-03T12:08:53.055Z,93.01
2022-12-03T12:12:25.653Z,92.91
2022-12-03T12:15:43.735Z,93.19
2022-12-03T12:18:58.633Z,93.35
2022-12-03T12:22:19.452Z,93.14
2022-12-03T12:25:43.082Z,93.53
2022-12-03T12:28:51.390Z,93.50
2022-12-03T12:32:19.633Z,92.86
2022-12-03T12:35:36.630Z,92.85
2022-12-03T12:38:45.386Z,92.97
2022-12-03T12:41:57.638Z,93.38
2022-12-03T12:45:16.990Z,94.08
2022-12-03T12:48:34.112Z,93.63
2022-12-03T12:51:54.612Z,93.97
2022-12-03T12:55:10.323Z,94.13
2022-12-03T12:58:23.857Z,94.26
2022-12-03T13:01:45.891Z,94.19
2022-12-03T13:05:00.644Z,94.46
2022-12-03T13:08:30.701Z,95.06
2022-12-03T13:11:48.637Z,95.06
2022-12-03T13:15:03.513Z,95.30
2022-12-03T13:18:34.831Z,95.36
2022-12-03T13:21:52.702Z,95.51
2022-12-03T13:25:32.583Z,95.04
2022-12-03T13:28:48.654Z,95.26
2022-12-03T13:32:17.003Z,94.97
2022-12-03T13:35:28.817Z,95.17
2022-12-03T13:38:43.803Z,94.94
2022-12-03T13:42:04.001Z,94.96
2022-12-03T13:45:22.655Z,95.32
2022-12-03T13:48:36.646Z,95.26
2022-12-03T13:51:45.199Z,95.08
2022-12-03T13:54:57.608Z,95.24
2022-12-03T13:58:12.654Z,95.50
2022-12-03T14:01:27.720Z,95.68
2022-12-03T14:04:43.657Z,95.58
2022-12-03T14:07:58.688Z,95.51
2022-12-03T14:11:07.412Z,96.01
2022-12-03T14:14:15.624Z,95.74
2022-12-03T14:17:38.609Z,96.29
2022-12-03T14:20:53.623Z,96.63
2022-12-03T14:24:03.138Z,96.95
2022-12-03T14:27:17.616Z,97.13
2022-12-03T14:30:32.667Z,97.12
2022-12-03T14:33:41.154Z,97.39
2022-12-03T14:36:55.629Z,97.25
2022-12-03T14:40:03.615Z,97.69
2022-12-03T14:43:18.655Z,97.92
2022-12-03T14:46:27.712Z,97.71
2022-12-03T14:49:42.636Z,97.80
2022-12-03T14:52:51.323Z,97.96
2022-12-03T14:55:59.646Z,98.16
2022-12-03T14:59:14.615Z,98.50
2022-12-03T15:02:29.708Z,98.50
2022-12-03T15:05:38.231Z,98.69
2022-12-03T15:08:52.638Z,98.68
2022-12-03T15:12:00.637Z,98.67
2022-12-03T15:15:09.748Z,99.19
2022-12-03T15:18:18.645Z,99.22
2022-12-03T15:21:40.804Z,99.35
2022-12-03T15:24:42.795Z,99.82
2022-12-03T15:27:57.602Z,99.64
2022-12-03T15:31:06.403Z,100.00
2022-12-03T15:34:20.598Z,99.93
2022-12-03T15:37:37.957Z,99.97
2022-12-03T15:40:53.608Z,99.94
2022-12-03T15:44:05.572Z,100.00
2022-12-03T15:47:13.653Z,100.00
2022-12-03T15:50:22.328Z,100.00
2022-12-03T15:53:37.629Z,100.00
2022-12-03T15:56:45.627Z,100.00
2022-12-03T16:00:00.603Z,100.00
2022-12-03T16:03:08.673Z,100.00
2022-12-03T16:06:17.333Z,100.00
2022-12-03T16:09:27.644Z,100.00
2022-12-03T16:12:36.532Z,100.00
2022-12-03T16:15:51.678Z,100.00
2022-12-03T16:18:59.911Z,100.00
2022-12-03T16:22:14.980Z,100.00
2022-12-03T16:25:17.123Z,100.00
2022-12-03T16:28:31.662Z,100.00
2022-12-03T16:31:40.236Z,100.00
2022-12-03T16:34:49.511Z,100.00
2022-12-03T16:38:04.816Z,100.00
2022-12-03T16:41:06.851Z,100.00
2022-12-03T16:44:21.615Z,100.00
2022-12-03T16:47:37.988Z,100.00
2022-12-03T16:50:46.707Z,100.00
2022-12-03T16:54:01.958Z,100.00
2022-12-03T16:57:16.659Z,100.00
2022-12-03T17:00:18.861Z,100.00
2022-12-03T17:03:34.874Z,100.00
2022-12-03T17:06:36.884Z,100.00
2022-12-03T17:09:51.743Z,100.00
2022-12-03T17:13:09.302Z,100.00
2022-12-03T17:16:18.255Z,100.00
2022-12-03T17:19:33.638Z,100.00
2022-12-03T17:22:48.713Z,100.00
2022-12-03T17:26:03.642Z,100.00
2022-12-03T17:29:18.626Z,100.00
2022-12-03T17:32:27.202Z,100.00
2022-12-03T17:35:41.614Z,100.00
2022-12-03T17:38:56.624Z,100.00
2022-12-03T17:42:11.614Z,100.00
2022-12-03T17:45:26.639Z,100.00
2022-12-03T17:48:29.220Z,100.00
2022-12-03T17:51:43.631Z,100.00
2022-12-03T17:55:21.090Z,100.00
2022-12-03T17:58:32.922Z,100.00
2022-12-03T18:01:34.940Z,100.00
2022-12-03T18:04:49.620Z,100.00
2022-12-03T18:07:58.902Z,100.00
2022-12-03T18:11:14.036Z,100.00
2022-12-03T18:14:23.284Z,100.00
2022-12-03T18:17:38.590Z,100.00
2022-12-03T18:21:00.939Z,100.00
2022-12-03T18:24:09.619Z,100.00
2022-12-03T18:27:25.020Z,100.00
2022-12-03T18:30:33.606Z,100.00
2022-12-03T18:33:43.042Z,100.00
2022-12-03T18:36:57.586Z,100.00
2022-12-03T18:40:12.663Z,100.00
2022-12-03T18:43:27.968Z,100.00
2022-12-03T18:46:52.911Z,100.00
2022-12-03T18:50:02.777Z,100.00
2022-12-03T18:53:22.606Z,100.00
2022-12-03T18:56:31.165Z,100.00
2022-12-03T18:59:45.678Z,100.00
2022-12-03T19:03:03.584Z,100.00
2022-12-03T19:06:26.916Z,100.00
2022-12-03T19:09:35.745Z,100.00
2022-12-03T19:12:46.037Z,100.00
2022-12-03T19:16:02.158Z,100.00
2022-12-03T19:19:19.050Z,100.00
2022-12-03T19:22:21.981Z,100.00
2022-12-03T19:25:38.943Z,100.00
2022-12-03T19:28:41.540Z,100.00
2022-12-03T19:31:58.162Z,100.00
2022-12-03T19:35:00.601Z,100.00
2022-12-03T19:38:16.147Z,100.00
2022-12-03T19:41:26.062Z,100.00
2022-12-03T19:44:41.934Z,100.00
2022-12-03T19:47:57.046Z,100.00
2022-12-03T19:51:33.123Z,100.00
2022-12-03T19:54:42.923Z,100.00
2022-12-03T19:57:57.989Z,100.00
2022-12-03T20:01:20.114Z,100.00
2022-12-03T20:04:28.568Z,100.00
2022-12-03T20:07:37.054Z,100.00
2022-12-03T20:10:45.218Z,100.00
2022-12-03T20:13:54.989Z,100.00
2022-12-03T20:17:10.060Z,100.00
2022-12-03T20:20:32.058Z,100.00
2022-12-03T20:23:48.581Z,100.00
2022-12-03T20:26:57.668Z,100.00
2022-12-03T20:30:14.047Z,100.00
2022-12-03T20:33:16.501Z,100.00
2022-12-03T20:36:33.619Z,100.00
2022-12-03T20:39:36.680Z,100.00
2022-12-03T20:42:55.597Z,100.00
2022-12-03T20:46:16.273Z,100.00
2022-12-03T20:49:31.990Z,100.00
2022-12-03T20:53:03.574Z,100.00
2022-12-03T20:56:36.919Z,100.00
2022-12-03T20:59:45.903Z,100.00
2022-12-03T21:03:00.969Z,100.00
2022-12-03T21:06:03.525Z,100.00
2022-12-03T21:09:19.707Z,100.00
2022-12-03T21:12:28.578Z,100.00
2022-12-03T21:15:43.603Z,100.00
2022-12-03T21:18:58.578Z,100.00
2022-12-03T21:22:00.940Z,100.00
2022-12-03T21:25:17.040Z,100.00
2022-12-03T21:28:31.604Z,100.00
2022-12-03T21:31:41.156Z,100.00
2022-12-03T21:34:55.855Z,100.00
2022-12-03T21:38:10.588Z,100.00
2022-12-03T21:41:13.230Z,100.00
2022-12-03T21:44:27.599Z,100.00
2022-12-03T21:47:42.702Z,100.00
2022-12-03T21:50:45.447Z,100.00
2022-12-03T21:54:00.608Z,100.00
2022-12-03T21:57:15.638Z,100.00
2022-12-03T22:00:24.606Z,100.00
2022-12-03T22:03:39.908Z,100.00
2022-12-03T22:06:54.602Z,100.00
2022-12-03T22:10:03.758Z,100.00
2022-12-03T22:13:18.595Z,100.00
2022-12-03T22:16:21.673Z,100.00
2022-12-03T22:19:37.588Z,100.00
2022-12-03T22:22:39.495Z,100.00
2022-12-03T22:26:03.648Z,100.00
2022-12-03T22:29:12.626Z,100.00
2022-12-03T22:32:27.578Z,100.00
2022-12-03T22:35:42.589Z,100.00
2022-12-03T22:38:44.729Z,100.00
2022-12-03T22:41:59.566Z,100.00
2022-12-03T22:45:08.420Z,100.00
2022-12-03T22:48:23.587Z,100.00
2022-12-03T22:51:32.609Z,100.00
2022-12-03T22:54:51.593Z,100.00
2022-12-03T22:58:00.212Z,100.00
2022-12-03T23:01:08.601Z,100.00
2022-12-03T23:04:23.586Z,100.00
2022-12-03T23:07:25.727Z,100.00
2022-12-03T23:10:42.574Z,100.00
2022-12-03T23:13:51.730Z,100.00
2022-12-03T23:17:06.570Z,100.00
2022-12-03T23:20:15.021Z,100.00
2022-12-03T23:23:32.582Z,100.00
2022-12-03T23:26:42.568Z,100.00
2022-12-03T23:29:52.819Z,100.00
2022-12-03T23:33:01.589Z,100.00
2022-12-03T23:36:11.156Z,100.00
2022-12-03T23:39:19.593Z,100.00
2022-12-03T23:42:34.800Z,100.00
2022-12-03T23:45:49.585Z,100.00
2022-12-03T23:48:58.796Z,100.00
2022-12-03T23:52:07.204Z,100.00
2022-12-03T23:55:15.580Z,100.00
2022-12-03T23:58:30.600Z,100.00
